sensor_id;sensor_type;location;lat;lon;timestamp;pressure;altitude;pressure_sealevel;temperature;humidity
72975;BME280;61166;54.228;37.632;2023-04-01T00:01:00;97961.47;;;2.11;nan
72975;BME280;61166;54.228;37.632;2023-04-01T00:03:28;97963.22;;;2.04;nan
72975;BME280;61166;54.228;37.632;2023-04-01T00:05:56;97954.63;;;2.04;nan
72975;BME280;61166;54.228;37.632;2023-04-01T00:08:24;97959.63;;;2.05;nan
72975;BME280;61166;54.228;37.632;2023-04-01T00:10:51;97953.81;;;2.03;nan
72975;BME280;61166;54.228;37.632;2023-04-01T00:13:19;97956.16;;;1.98;nan
72975;BME280;61166;54.228;37.632;2023-04-01T00:15:45;97954.00;;;2.02;nan
72975;BME280;61166;54.228;37.632;2023-04-01T00:18:12;97947.78;;;1.96;nan
72975;BME280;61166;54.228;37.632;2023-04-01T00:20:43;97948.53;;;1.90;nan
72975;BME280;61166;54.228;37.632;2023-04-01T00:23:09;97950.06;;;1.84;nan
72975;BME280;61166;54.228;37.632;2023-04-01T00:25:36;97954.88;;;1.87;nan
72975;BME280;61166;54.228;37.632;2023-04-01T00:28:03;97953.66;;;1.83;nan
72975;BME280;61166;54.228;37.632;2023-04-01T00:30:29;97949.44;;;1.82;nan
72975;BME280;61166;54.228;37.632;2023-04-01T00:32:55;97946.25;;;1.80;nan
72975;BME280;61166;54.228;37.632;2023-04-01T00:35:22;97954.38;;;1.77;nan
72975;BME280;61166;54.228;37.632;2023-04-01T00:37:49;97953.22;;;1.80;nan
72975;BME280;61166;54.228;37.632;2023-04-01T00:42:54;97966.72;;;1.75;nan
72975;BME280;61166;54.228;37.632;2023-04-01T00:45:37;97973.16;;;1.79;nan
72975;BME280;61166;54.228;37.632;2023-04-01T00:48:08;97970.38;;;1.81;nan
72975;BME280;61166;54.228;37.632;2023-04-01T00:50:37;97971.59;;;1.85;nan
72975;BME280;61166;54.228;37.632;2023-04-01T00:53:05;97964.44;;;1.87;nan
72975;BME280;61166;54.228;37.632;2023-04-01T00:55:35;97974.00;;;1.86;nan
72975;BME280;61166;54.228;37.632;2023-04-01T00:58:05;97972.41;;;1.85;nan
72975;BME280;61166;54.228;37.632;2023-04-01T01:00:35;97980.81;;;1.87;nan
72975;BME280;61166;54.228;37.632;2023-04-01T01:03:02;97988.75;;;1.86;nan
72975;BME280;61166;54.228;37.632;2023-04-01T01:05:51;97980.72;;;1.81;nan
72975;BME280;61166;54.228;37.632;2023-04-01T01:11:40;97983.06;;;1.76;nan
72975;BME280;61166;54.228;37.632;2023-04-01T01:16:53;98007.41;;;1.75;nan
72975;BME280;61166;54.228;37.632;2023-04-01T01:20:14;97980.66;;;1.74;nan
72975;BME280;61166;54.228;37.632;2023-04-01T01:31:31;97978.41;;;1.86;nan
72975;BME280;61166;54.228;37.632;2023-04-01T01:36:37;97978.41;;;1.86;nan
72975;BME280;61166;54.228;37.632;2023-04-01T01:39:05;97975.81;;;1.86;nan
72975;BME280;61166;54.228;37.632;2023-04-01T01:41:34;97982.72;;;1.79;nan
72975;BME280;61166;54.228;37.632;2023-04-01T01:44:05;97977.66;;;1.71;nan
72975;BME280;61166;54.228;37.632;2023-04-01T01:46:33;97979.81;;;1.67;nan
72975;BME280;61166;54.228;37.632;2023-04-01T01:49:00;97980.63;;;1.68;nan
72975;BME280;61166;54.228;37.632;2023-04-01T01:51:28;97985.44;;;1.71;nan
72975;BME280;61166;54.228;37.632;2023-04-01T01:53:55;97982.72;;;1.79;nan
72975;BME280;61166;54.228;37.632;2023-04-01T01:56:23;97988.69;;;1.79;nan
72975;BME280;61166;54.228;37.632;2023-04-01T01:58:58;97992.72;;;1.82;nan
72975;BME280;61166;54.228;37.632;2023-04-01T02:01:28;97991.72;;;1.83;nan
72975;BME280;61166;54.228;37.632;2023-04-01T02:03:56;97996.66;;;1.78;nan
72975;BME280;61166;54.228;37.632;2023-04-01T02:06:26;97990.84;;;1.76;nan
72975;BME280;61166;54.228;37.632;2023-04-01T02:09:00;97996.03;;;1.76;nan
72975;BME280;61166;54.228;37.632;2023-04-01T02:11:36;97993.84;;;1.73;nan
72975;BME280;61166;54.228;37.632;2023-04-01T02:14:09;98000.59;;;1.74;nan
72975;BME280;61166;54.228;37.632;2023-04-01T02:16:43;98010.59;;;1.77;nan
72975;BME280;61166;54.228;37.632;2023-04-01T02:19:13;98008.25;;;1.82;nan
72975;BME280;61166;54.228;37.632;2023-04-01T02:21:40;98020.25;;;1.83;nan
72975;BME280;61166;54.228;37.632;2023-04-01T02:24:12;98020.25;;;1.83;nan
72975;BME280;61166;54.228;37.632;2023-04-01T02:26:40;98014.50;;;1.87;nan
72975;BME280;61166;54.228;37.632;2023-04-01T02:29:08;98021.22;;;1.82;nan
72975;BME280;61166;54.228;37.632;2023-04-01T02:31:37;98015.59;;;1.78;nan
72975;BME280;61166;54.228;37.632;2023-04-01T02:34:04;98019.63;;;1.81;nan
72975;BME280;61166;54.228;37.632;2023-04-01T02:36:31;98016.22;;;1.80;nan
72975;BME280;61166;54.228;37.632;2023-04-01T02:38:58;98018.25;;;1.85;nan
72975;BME280;61166;54.228;37.632;2023-04-01T02:41:25;98021.34;;;1.74;nan
72975;BME280;61166;54.228;37.632;2023-04-01T02:43:52;98018.34;;;1.70;nan
72975;BME280;61166;54.228;37.632;2023-04-01T02:46:18;98024.19;;;1.79;nan
72975;BME280;61166;54.228;37.632;2023-04-01T02:48:45;98028.44;;;1.86;nan
72975;BME280;61166;54.228;37.632;2023-04-01T02:51:11;98027.28;;;1.89;nan
72975;BME280;61166;54.228;37.632;2023-04-01T02:53:38;98028.53;;;1.93;nan
72975;BME280;61166;54.228;37.632;2023-04-01T02:56:05;98024.31;;;1.92;nan
72975;BME280;61166;54.228;37.632;2023-04-01T02:58:31;98033.09;;;1.91;nan
72975;BME280;61166;54.228;37.632;2023-04-01T03:00:58;98035.69;;;1.91;nan
72975;BME280;61166;54.228;37.632;2023-04-01T03:03:24;98032.22;;;1.84;nan
72975;BME280;61166;54.228;37.632;2023-04-01T03:05:51;98033.81;;;1.85;nan
72975;BME280;61166;54.228;37.632;2023-04-01T03:08:17;98047.03;;;1.90;nan
72975;BME280;61166;54.228;37.632;2023-04-01T03:10:44;98049.00;;;1.88;nan
72975;BME280;61166;54.228;37.632;2023-04-01T03:13:11;98050.63;;;1.89;nan
72975;BME280;61166;54.228;37.632;2023-04-01T03:15:37;98061.78;;;1.89;nan
72975;BME280;61166;54.228;37.632;2023-04-01T03:18:04;98064.56;;;1.88;nan
72975;BME280;61166;54.228;37.632;2023-04-01T03:20:31;98057.03;;;1.93;nan
72975;BME280;61166;54.228;37.632;2023-04-01T03:22:57;98063.47;;;1.97;nan
72975;BME280;61166;54.228;37.632;2023-04-01T03:25:24;98067.84;;;1.96;nan
72975;BME280;61166;54.228;37.632;2023-04-01T03:27:50;98068.66;;;1.97;nan
72975;BME280;61166;54.228;37.632;2023-04-01T03:30:17;98078.78;;;1.92;nan
72975;BME280;61166;54.228;37.632;2023-04-01T03:32:44;98079.22;;;1.95;nan
72975;BME280;61166;54.228;37.632;2023-04-01T03:35:11;98077.41;;;1.96;nan
72975;BME280;61166;54.228;37.632;2023-04-01T03:37:37;98072.22;;;1.96;nan
72975;BME280;61166;54.228;37.632;2023-04-01T03:40:04;98073.47;;;2.00;nan
72975;BME280;61166;54.228;37.632;2023-04-01T03:42:31;98075.50;;;2.05;nan
72975;BME280;61166;54.228;37.632;2023-04-01T03:44:58;98078.00;;;2.13;nan
72975;BME280;61166;54.228;37.632;2023-04-01T03:47:24;98087.19;;;2.15;nan
72975;BME280;61166;54.228;37.632;2023-04-01T03:49:51;98076.63;;;2.17;nan
72975;BME280;61166;54.228;37.632;2023-04-01T03:52:17;98079.13;;;2.25;nan
72975;BME280;61166;54.228;37.632;2023-04-01T03:54:44;98073.38;;;2.29;nan
72975;BME280;61166;54.228;37.632;2023-04-01T03:57:10;98079.38;;;2.30;nan
72975;BME280;61166;54.228;37.632;2023-04-01T03:59:37;98078.75;;;2.28;nan
72975;BME280;61166;54.228;37.632;2023-04-01T04:02:04;98088.16;;;2.36;nan
72975;BME280;61166;54.228;37.632;2023-04-01T04:04:31;98088.28;;;2.49;nan
72975;BME280;61166;54.228;37.632;2023-04-01T04:06:57;98083.72;;;2.51;nan
72975;BME280;61166;54.228;37.632;2023-04-01T04:09:24;98088.78;;;2.59;nan
72975;BME280;61166;54.228;37.632;2023-04-01T04:11:50;98085.81;;;2.62;nan
72975;BME280;61166;54.228;37.632;2023-04-01T04:14:17;98094.03;;;2.65;nan
72975;BME280;61166;54.228;37.632;2023-04-01T04:16:44;98084.44;;;2.66;nan
72975;BME280;61166;54.228;37.632;2023-04-01T04:19:10;98090.25;;;2.68;nan
72975;BME280;61166;54.228;37.632;2023-04-01T04:21:37;98091.69;;;2.71;nan
72975;BME280;61166;54.228;37.632;2023-04-01T04:24:04;98102.69;;;2.73;nan
72975;BME280;61166;54.228;37.632;2023-04-01T04:26:30;98106.03;;;2.67;nan
72975;BME280;61166;54.228;37.632;2023-04-01T04:28:57;98102.88;;;2.71;nan
72975;BME280;61166;54.228;37.632;2023-04-01T04:31:24;98108.84;;;2.72;nan
72975;BME280;61166;54.228;37.632;2023-04-01T04:33:52;98108.53;;;2.81;nan
72975;BME280;61166;54.228;37.632;2023-04-01T04:36:19;98115.16;;;2.84;nan
72975;BME280;61166;54.228;37.632;2023-04-01T04:38:47;98111.38;;;2.86;nan
72975;BME280;61166;54.228;37.632;2023-04-01T04:41:15;98124.81;;;2.96;nan
72975;BME280;61166;54.228;37.632;2023-04-01T04:43:42;98124.28;;;3.08;nan
72975;BME280;61166;54.228;37.632;2023-04-01T04:46:14;98131.19;;;3.22;nan
72975;BME280;61166;54.228;37.632;2023-04-01T04:48:41;98136.09;;;3.38;nan
72975;BME280;61166;54.228;37.632;2023-04-01T04:51:07;98136.13;;;3.45;nan
72975;BME280;61166;54.228;37.632;2023-04-01T04:53:34;98139.97;;;3.55;nan
72975;BME280;61166;54.228;37.632;2023-04-01T04:56:00;98145.81;;;3.64;nan
72975;BME280;61166;54.228;37.632;2023-04-01T04:58:27;98153.13;;;3.82;nan
72975;BME280;61166;54.228;37.632;2023-04-01T05:00:53;98156.38;;;3.97;nan
72975;BME280;61166;54.228;37.632;2023-04-01T05:03:20;98151.00;;;4.05;nan
72975;BME280;61166;54.228;37.632;2023-04-01T05:05:51;98160.66;;;4.24;nan
72975;BME280;61166;54.228;37.632;2023-04-01T05:08:18;98164.72;;;4.40;nan
72975;BME280;61166;54.228;37.632;2023-04-01T05:10:45;98159.34;;;4.68;nan
72975;BME280;61166;54.228;37.632;2023-04-01T05:13:12;98160.59;;;4.98;nan
72975;BME280;61166;54.228;37.632;2023-04-01T05:15:39;98158.13;;;5.37;nan
72975;BME280;61166;54.228;37.632;2023-04-01T05:18:06;98151.16;;;5.88;nan
72975;BME280;61166;54.228;37.632;2023-04-01T05:20:32;98152.69;;;6.22;nan
72975;BME280;61166;54.228;37.632;2023-04-01T05:22:59;98150.00;;;6.67;nan
72975;BME280;61166;54.228;37.632;2023-04-01T05:25:26;98142.50;;;6.77;nan
72975;BME280;61166;54.228;37.632;2023-04-01T05:27:53;98142.28;;;7.47;nan
72975;BME280;61166;54.228;37.632;2023-04-01T05:30:20;98147.16;;;8.28;nan
72975;BME280;61166;54.228;37.632;2023-04-01T05:32:47;98147.25;;;9.63;nan
72975;BME280;61166;54.228;37.632;2023-04-01T05:35:13;98142.94;;;12.37;nan
72975;BME280;61166;54.228;37.632;2023-04-01T05:37:40;98153.09;;;12.50;nan
72975;BME280;61166;54.228;37.632;2023-04-01T05:40:07;98141.84;;;13.18;nan
72975;BME280;61166;54.228;37.632;2023-04-01T05:42:34;98148.00;;;14.44;nan
72975;BME280;61166;54.228;37.632;2023-04-01T05:45:03;98155.31;;;13.64;nan
72975;BME280;61166;54.228;37.632;2023-04-01T05:47:30;98152.59;;;13.49;nan
72975;BME280;61166;54.228;37.632;2023-04-01T05:49:57;98151.19;;;15.22;nan
72975;BME280;61166;54.228;37.632;2023-04-01T05:52:23;98151.50;;;13.97;nan
72975;BME280;61166;54.228;37.632;2023-04-01T05:54:50;98155.66;;;13.78;nan
72975;BME280;61166;54.228;37.632;2023-04-01T05:57:17;98153.69;;;14.15;nan
72975;BME280;61166;54.228;37.632;2023-04-01T05:59:43;98153.31;;;15.20;nan
72975;BME280;61166;54.228;37.632;2023-04-01T06:02:10;98158.59;;;15.45;nan
72975;BME280;61166;54.228;37.632;2023-04-01T06:04:40;98160.41;;;16.40;nan
72975;BME280;61166;54.228;37.632;2023-04-01T06:07:18;98169.63;;;14.31;nan
72975;BME280;61166;54.228;37.632;2023-04-01T06:09:45;98180.13;;;13.58;nan
72975;BME280;61166;54.228;37.632;2023-04-01T06:15:23;98182.16;;;17.25;nan
72975;BME280;61166;54.228;37.632;2023-04-01T06:40:12;98183.72;;;20.85;nan
72975;BME280;61166;54.228;37.632;2023-04-01T06:42:54;98190.56;;;19.27;nan
72975;BME280;61166;54.228;37.632;2023-04-01T06:45:44;98202.75;;;16.65;nan
72975;BME280;61166;54.228;37.632;2023-04-01T06:51:18;98211.13;;;16.28;nan
72975;BME280;61166;54.228;37.632;2023-04-01T06:56:25;98197.00;;;17.26;nan
72975;BME280;61166;54.228;37.632;2023-04-01T07:01:29;98195.16;;;15.48;nan
72975;BME280;61166;54.228;37.632;2023-04-01T07:06:50;98220.00;;;13.57;nan
72975;BME280;61166;54.228;37.632;2023-04-01T07:09:24;98215.47;;;13.94;nan
72975;BME280;61166;54.228;37.632;2023-04-01T07:11:54;98217.91;;;12.68;nan
72975;BME280;61166;54.228;37.632;2023-04-01T07:14:32;98217.91;;;11.80;nan
72975;BME280;61166;54.228;37.632;2023-04-01T07:17:07;98221.88;;;10.82;nan
72975;BME280;61166;54.228;37.632;2023-04-01T07:19:48;98219.63;;;9.47;nan
72975;BME280;61166;54.228;37.632;2023-04-01T07:22:43;98226.34;;;9.20;nan
72975;BME280;61166;54.228;37.632;2023-04-01T07:25:18;98232.00;;;9.05;nan
72975;BME280;61166;54.228;37.632;2023-04-01T07:27:46;98226.13;;;9.56;nan
72975;BME280;61166;54.228;37.632;2023-04-01T07:30:16;98223.41;;;9.75;nan
72975;BME280;61166;54.228;37.632;2023-04-01T07:33:11;98223.97;;;9.77;nan
72975;BME280;61166;54.228;37.632;2023-04-01T07:36:33;98225.50;;;9.08;nan
72975;BME280;61166;54.228;37.632;2023-04-01T07:41:33;98224.88;;;9.24;nan
72975;BME280;61166;54.228;37.632;2023-04-01T07:49:34;98224.34;;;11.06;nan
72975;BME280;61166;54.228;37.632;2023-04-01T07:52:15;98218.97;;;12.01;nan
72975;BME280;61166;54.228;37.632;2023-04-01T08:00:06;98233.00;;;12.50;nan
72975;BME280;61166;54.228;37.632;2023-04-01T08:05:27;98229.66;;;12.11;nan
72975;BME280;61166;54.228;37.632;2023-04-01T08:13:41;98232.06;;;12.88;nan
72975;BME280;61166;54.228;37.632;2023-04-01T08:16:29;98232.97;;;14.05;nan
72975;BME280;61166;54.228;37.632;2023-04-01T08:21:52;98231.44;;;15.83;nan
72975;BME280;61166;54.228;37.632;2023-04-01T08:24:27;98230.94;;;15.26;nan
72975;BME280;61166;54.228;37.632;2023-04-01T08:27:39;98238.66;;;15.58;nan
72975;BME280;61166;54.228;37.632;2023-04-01T08:30:21;98227.13;;;16.08;nan
72975;BME280;61166;54.228;37.632;2023-04-01T08:32:57;98231.47;;;16.48;nan
72975;BME280;61166;54.228;37.632;2023-04-01T08:37:52;98240.72;;;12.13;nan
72975;BME280;61166;54.228;37.632;2023-04-01T08:55:04;98268.88;;;9.22;nan
72975;BME280;61166;54.228;37.632;2023-04-01T08:58:01;98271.16;;;9.30;nan
72975;BME280;61166;54.228;37.632;2023-04-01T09:00:54;98260.28;;;9.80;nan
72975;BME280;61166;54.228;37.632;2023-04-01T09:11:38;98266.84;;;9.24;nan
72975;BME280;61166;54.228;37.632;2023-04-01T09:14:36;98269.22;;;9.25;nan
72975;BME280;61166;54.228;37.632;2023-04-01T09:25:38;98275.03;;;8.38;nan
72975;BME280;61166;54.228;37.632;2023-04-01T09:28:36;98280.09;;;7.96;nan
72975;BME280;61166;54.228;37.632;2023-04-01T09:33:52;98272.75;;;8.05;nan
72975;BME280;61166;54.228;37.632;2023-04-01T09:39:34;98285.28;;;7.78;nan
72975;BME280;61166;54.228;37.632;2023-04-01T09:44:36;98292.66;;;7.87;nan
72975;BME280;61166;54.228;37.632;2023-04-01T10:01:51;98282.63;;;7.35;nan
72975;BME280;61166;54.228;37.632;2023-04-01T10:18:58;98300.66;;;7.18;nan
72975;BME280;61166;54.228;37.632;2023-04-01T10:24:31;98313.97;;;7.41;nan
72975;BME280;61166;54.228;37.632;2023-04-01T10:49:29;98344.66;;;6.32;nan
72975;BME280;61166;54.228;37.632;2023-04-01T11:09:13;98340.94;;;6.59;nan
72975;BME280;61166;54.228;37.632;2023-04-01T11:18:12;98337.84;;;6.88;nan
72975;BME280;61166;54.228;37.632;2023-04-01T11:23:35;98340.25;;;7.21;nan
72975;BME280;61166;54.228;37.632;2023-04-01T11:31:44;98344.38;;;7.04;nan
72975;BME280;61166;54.228;37.632;2023-04-01T11:42:39;98353.97;;;6.72;nan
72975;BME280;61166;54.228;37.632;2023-04-01T11:45:19;98343.66;;;6.90;nan
72975;BME280;61166;54.228;37.632;2023-04-01T11:48:13;98348.16;;;6.70;nan
72975;BME280;61166;54.228;37.632;2023-04-01T11:53:47;98351.44;;;6.46;nan
72975;BME280;61166;54.228;37.632;2023-04-01T11:56:33;98354.56;;;6.74;nan
72975;BME280;61166;54.228;37.632;2023-04-01T11:59:22;98353.63;;;6.49;nan
72975;BME280;61166;54.228;37.632;2023-04-01T12:02:38;98347.38;;;6.63;nan
72975;BME280;61166;54.228;37.632;2023-04-01T12:08:09;98363.47;;;6.47;nan
72975;BME280;61166;54.228;37.632;2023-04-01T12:13:42;98361.47;;;6.49;nan
72975;BME280;61166;54.228;37.632;2023-04-01T12:16:21;98377.16;;;6.42;nan
72975;BME280;61166;54.228;37.632;2023-04-01T12:19:04;98366.28;;;6.52;nan
72975;BME280;61166;54.228;37.632;2023-04-01T12:21:38;98369.47;;;6.67;nan
72975;BME280;61166;54.228;37.632;2023-04-01T12:31:27;98366.28;;;6.58;nan
72975;BME280;61166;54.228;37.632;2023-04-01T12:39:11;98396.41;;;6.61;nan
72975;BME280;61166;54.228;37.632;2023-04-01T13:06:58;98420.75;;;6.48;nan
72975;BME280;61166;54.228;37.632;2023-04-01T13:12:34;98432.22;;;6.01;nan
72975;BME280;61166;54.228;37.632;2023-04-01T13:21:19;98416.16;;;6.31;nan
72975;BME280;61166;54.228;37.632;2023-04-01T13:27:14;98418.91;;;6.62;nan
72975;BME280;61166;54.228;37.632;2023-04-01T13:29:45;98435.81;;;6.40;nan
72975;BME280;61166;54.228;37.632;2023-04-01T13:32:18;98428.19;;;6.38;nan
72975;BME280;61166;54.228;37.632;2023-04-01T13:35:23;98436.47;;;6.28;nan
72975;BME280;61166;54.228;37.632;2023-04-01T13:43:37;98441.03;;;6.40;nan
72975;BME280;61166;54.228;37.632;2023-04-01T13:46:28;98444.44;;;6.60;nan
72975;BME280;61166;54.228;37.632;2023-04-01T13:52:29;98457.31;;;6.42;nan
72975;BME280;61166;54.228;37.632;2023-04-01T13:55:18;98458.72;;;6.44;nan
72975;BME280;61166;54.228;37.632;2023-04-01T13:58:01;98455.50;;;6.49;nan
72975;BME280;61166;54.228;37.632;2023-04-01T14:06:06;98471.22;;;6.29;nan
72975;BME280;61166;54.228;37.632;2023-04-01T14:25:29;98472.41;;;6.20;nan
72975;BME280;61166;54.228;37.632;2023-04-01T14:33:26;98484.66;;;6.33;nan
72975;BME280;61166;54.228;37.632;2023-04-01T14:48:59;98476.81;;;6.39;nan
72975;BME280;61166;54.228;37.632;2023-04-01T14:54:00;98475.22;;;6.25;nan
72975;BME280;61166;54.228;37.632;2023-04-01T14:59:40;98486.03;;;6.55;nan
72975;BME280;61166;54.228;37.632;2023-04-01T15:05:03;98484.84;;;6.44;nan
72975;BME280;61166;54.228;37.632;2023-04-01T15:08:05;98492.88;;;6.43;nan
72975;BME280;61166;54.228;37.632;2023-04-01T15:13:14;98488.06;;;6.59;nan
72975;BME280;61166;54.228;37.632;2023-04-01T15:24:26;98522.63;;;6.28;nan
72975;BME280;61166;54.228;37.632;2023-04-01T15:27:33;98522.03;;;6.26;nan
72975;BME280;61166;54.228;37.632;2023-04-01T15:49:57;98560.00;;;6.62;nan
72975;BME280;61166;54.228;37.632;2023-04-01T15:52:52;98563.59;;;6.48;nan
72975;BME280;61166;54.228;37.632;2023-04-01T16:11:27;98581.28;;;6.33;nan
72975;BME280;61166;54.228;37.632;2023-04-01T16:19:32;98604.19;;;6.31;nan
72975;BME280;61166;54.228;37.632;2023-04-01T16:22:07;98605.78;;;6.38;nan
72975;BME280;61166;54.228;37.632;2023-04-01T16:24:46;98603.00;;;6.46;nan
72975;BME280;61166;54.228;37.632;2023-04-01T16:30:55;98607.81;;;6.43;nan
72975;BME280;61166;54.228;37.632;2023-04-01T16:36:09;98616.25;;;6.45;nan
72975;BME280;61166;54.228;37.632;2023-04-01T16:38:43;98614.41;;;6.39;nan
72975;BME280;61166;54.228;37.632;2023-04-01T16:46:27;98627.31;;;6.34;nan
72975;BME280;61166;54.228;37.632;2023-04-01T16:49:16;98623.88;;;6.46;nan
72975;BME280;61166;54.228;37.632;2023-04-01T16:56:54;98628.69;;;6.43;nan
72975;BME280;61166;54.228;37.632;2023-04-01T17:00:36;98633.09;;;6.36;nan
72975;BME280;61166;54.228;37.632;2023-04-01T17:02:47;98633.53;;;6.52;nan
72975;BME280;61166;54.228;37.632;2023-04-01T17:05:16;98636.53;;;6.43;nan
72975;BME280;61166;54.228;37.632;2023-04-01T17:13:35;98644.53;;;6.21;nan
72975;BME280;61166;54.228;37.632;2023-04-01T17:25:08;98655.19;;;6.26;nan
72975;BME280;61166;54.228;37.632;2023-04-01T17:30:35;98659.19;;;6.22;nan
72975;BME280;61166;54.228;37.632;2023-04-01T17:52:03;98664.78;;;6.13;nan
72975;BME280;61166;54.228;37.632;2023-04-01T17:54:53;98660.75;;;6.10;nan
72975;BME280;61166;54.228;37.632;2023-04-01T17:57:32;98664.75;;;6.06;nan
72975;BME280;61166;54.228;37.632;2023-04-01T18:19:31;98670.41;;;6.10;nan
72975;BME280;61166;54.228;37.632;2023-04-01T18:22:22;98672.44;;;6.21;nan
72975;BME280;61166;54.228;37.632;2023-04-01T18:27:38;98672.09;;;6.31;nan
72975;BME280;61166;54.228;37.632;2023-04-01T18:30:28;98673.19;;;6.08;nan
72975;BME280;61166;54.228;37.632;2023-04-01T18:33:04;98678.44;;;6.08;nan
72975;BME280;61166;54.228;37.632;2023-04-01T18:38:13;98690.50;;;6.16;nan
72975;BME280;61166;54.228;37.632;2023-04-01T18:40:45;98679.09;;;6.23;nan
72975;BME280;61166;54.228;37.632;2023-04-01T18:43:22;98681.69;;;6.23;nan
72975;BME280;61166;54.228;37.632;2023-04-01T18:51:25;98696.38;;;6.24;nan
72975;BME280;61166;54.228;37.632;2023-04-01T18:53:57;98693.94;;;6.23;nan
72975;BME280;61166;54.228;37.632;2023-04-01T18:56:30;98693.16;;;6.36;nan
72975;BME280;61166;54.228;37.632;2023-04-01T19:04:32;98706.75;;;6.11;nan
72975;BME280;61166;54.228;37.632;2023-04-01T19:09:52;98705.78;;;6.19;nan
72975;BME280;61166;54.228;37.632;2023-04-01T19:12:35;98703.19;;;6.25;nan
72975;BME280;61166;54.228;37.632;2023-04-01T19:20:30;98731.09;;;6.18;nan
72975;BME280;61166;54.228;37.632;2023-04-01T19:26:05;98708.44;;;6.25;nan
72975;BME280;61166;54.228;37.632;2023-04-01T19:28:47;98707.03;;;6.29;nan
72975;BME280;61166;54.228;37.632;2023-04-01T19:36:52;98715.47;;;6.25;nan
72975;BME280;61166;54.228;37.632;2023-04-01T19:39:51;98717.72;;;6.35;nan
72975;BME280;61166;54.228;37.632;2023-04-01T19:42:52;98713.25;;;6.28;nan
72975;BME280;61166;54.228;37.632;2023-04-01T19:45:31;98726.09;;;6.23;nan
72975;BME280;61166;54.228;37.632;2023-04-01T19:48:56;98714.38;;;6.67;nan
72975;BME280;61166;54.228;37.632;2023-04-01T19:51:43;98730.38;;;6.44;nan
72975;BME280;61166;54.228;37.632;2023-04-01T19:57:09;98732.16;;;6.31;nan
72975;BME280;61166;54.228;37.632;2023-04-01T19:59:57;98735.97;;;6.28;nan
72975;BME280;61166;54.228;37.632;2023-04-01T20:02:33;98730.53;;;6.29;nan
72975;BME280;61166;54.228;37.632;2023-04-01T20:07:52;98744.00;;;6.40;nan
72975;BME280;61166;54.228;37.632;2023-04-01T20:10:50;98745.19;;;6.24;nan
72975;BME280;61166;54.228;37.632;2023-04-01T20:16:03;98752.41;;;6.22;nan
72975;BME280;61166;54.228;37.632;2023-04-01T20:18:51;98754.47;;;6.40;nan
72975;BME280;61166;54.228;37.632;2023-04-01T20:24:33;98752.84;;;6.39;nan
72975;BME280;61166;54.228;37.632;2023-04-01T20:27:17;98762.69;;;6.37;nan
72975;BME280;61166;54.228;37.632;2023-04-01T20:40:31;98774.97;;;6.43;nan
72975;BME280;61166;54.228;37.632;2023-04-01T20:45:35;98776.63;;;6.50;nan
72975;BME280;61166;54.228;37.632;2023-04-01T20:50:51;98771.81;;;6.54;nan
72975;BME280;61166;54.228;37.632;2023-04-01T20:53:25;98779.78;;;6.33;nan
72975;BME280;61166;54.228;37.632;2023-04-01T20:56:08;98784.59;;;6.36;nan
72975;BME280;61166;54.228;37.632;2023-04-01T21:01:36;98778.19;;;6.45;nan
72975;BME280;61166;54.228;37.632;2023-04-01T21:04:22;98793.00;;;6.24;nan
72975;BME280;61166;54.228;37.632;2023-04-01T21:10:01;98790.16;;;6.19;nan
72975;BME280;61166;54.228;37.632;2023-04-01T21:15:39;98799.28;;;6.02;nan
72975;BME280;61166;54.228;37.632;2023-04-01T21:31:41;98802.16;;;5.86;nan
72975;BME280;61166;54.228;37.632;2023-04-01T21:53:41;98814.50;;;5.71;nan
72975;BME280;61166;54.228;37.632;2023-04-01T21:56:27;98810.78;;;5.58;nan
72975;BME280;61166;54.228;37.632;2023-04-01T22:01:57;98817.72;;;5.73;nan
72975;BME280;61166;54.228;37.632;2023-04-01T22:07:41;98812.72;;;5.78;nan
72975;BME280;61166;54.228;37.632;2023-04-01T22:13:07;98821.72;;;5.69;nan
72975;BME280;61166;54.228;37.632;2023-04-01T22:18:25;98830.41;;;5.82;nan
72975;BME280;61166;54.228;37.632;2023-04-01T22:21:00;98830.78;;;5.73;nan
72975;BME280;61166;54.228;37.632;2023-04-01T22:23:58;98828.53;;;5.70;nan
72975;BME280;61166;54.228;37.632;2023-04-01T22:27:01;98822.31;;;5.71;nan
72975;BME280;61166;54.228;37.632;2023-04-01T22:32:14;98830.78;;;5.73;nan
72975;BME280;61166;54.228;37.632;2023-04-01T22:34:57;98830.28;;;5.62;nan
72975;BME280;61166;54.228;37.632;2023-04-01T22:37:52;98833.13;;;5.68;nan
72975;BME280;61166;54.228;37.632;2023-04-01T22:40:41;98830.53;;;5.68;nan
72975;BME280;61166;54.228;37.632;2023-04-01T22:43:18;98825.13;;;5.69;nan
72975;BME280;61166;54.228;37.632;2023-04-01T22:48:32;98829.97;;;6.00;nan
72975;BME280;61166;54.228;37.632;2023-04-01T22:56:33;98823.84;;;6.14;nan
72975;BME280;61166;54.228;37.632;2023-04-01T23:01:35;98823.84;;;6.14;nan
72975;BME280;61166;54.228;37.632;2023-04-01T23:04:04;98827.88;;;6.17;nan
72975;BME280;61166;54.228;37.632;2023-04-01T23:06:39;98826.66;;;6.13;nan
72975;BME280;61166;54.228;37.632;2023-04-01T23:09:12;98818.69;;;5.93;nan
72975;BME280;61166;54.228;37.632;2023-04-01T23:12:20;98821.72;;;5.96;nan
72975;BME280;61166;54.228;37.632;2023-04-01T23:14:43;98823.53;;;5.96;nan
72975;BME280;61166;54.228;37.632;2023-04-01T23:19:59;98829.38;;;5.98;nan
72975;BME280;61166;54.228;37.632;2023-04-01T23:22:39;98834.97;;;5.95;nan
72975;BME280;61166;54.228;37.632;2023-04-01T23:26:20;98833.72;;;5.91;nan
72975;BME280;61166;54.228;37.632;2023-04-01T23:28:24;98830.03;;;5.85;nan
72975;BME280;61166;54.228;37.632;2023-04-01T23:30:52;98823.16;;;5.78;nan
72975;BME280;61166;54.228;37.632;2023-04-01T23:38:26;98823.31;;;5.70;nan
72975;BME280;61166;54.228;37.632;2023-04-01T23:40:54;98827.25;;;5.87;nan
72975;BME280;61166;54.228;37.632;2023-04-01T23:43:30;98828.19;;;5.79;nan
72975;BME280;61166;54.228;37.632;2023-04-01T23:46:00;98825.56;;;5.73;nan
72975;BME280;61166;54.228;37.632;2023-04-01T23:48:32;98823.94;;;5.72;nan
72975;BME280;61166;54.228;37.632;2023-04-01T23:51:00;98824.88;;;5.64;nan
72975;BME280;61166;54.228;37.632;2023-04-01T23:53:30;98828.66;;;5.61;nan